sensor_id;sensor_type;location;lat;lon;timestamp;pressure;altitude;pressure_sealevel;temperature;humidity
6530;BME280;3298;42.688;23.366;2022-07-22T00:01:32;58910.69;;;-145.06;63.34
6530;BME280;3298;42.688;23.366;2022-07-22T00:03:59;58900.44;;;-145.06;62.17
6530;BME280;3298;42.688;23.366;2022-07-22T00:06:27;58920.94;;;-145.06;61.90
6530;BME280;3298;42.688;23.366;2022-07-22T00:08:56;58933.25;;;-145.06;62.51
6530;BME280;3298;42.688;23.366;2022-07-22T00:11:23;58949.66;;;-145.06;62.16
6530;BME280;3298;42.688;23.366;2022-07-22T00:13:50;58933.25;;;-145.06;62.28
6530;BME280;3298;42.688;23.366;2022-07-22T00:16:17;58959.91;;;-145.06;62.45
6530;BME280;3298;42.688;23.366;2022-07-22T00:18:43;58910.69;;;-145.06;62.59
6530;BME280;3298;42.688;23.366;2022-07-22T00:21:10;58824.53;;;-145.06;62.28
6530;BME280;3298;42.688;23.366;2022-07-22T00:23:37;58875.81;;;-145.06;61.85
6530;BME280;3298;42.688;23.366;2022-07-22T00:26:05;58859.41;;;-145.06;61.08
6530;BME280;3298;42.688;23.366;2022-07-22T00:28:32;58847.09;;;-145.06;60.50
6530;BME280;3298;42.688;23.366;2022-07-22T00:30:59;58818.38;;;-145.06;60.56
6530;BME280;3298;42.688;23.366;2022-07-22T00:33:26;58785.56;;;-145.06;60.59
6530;BME280;3298;42.688;23.366;2022-07-22T00:35:52;58785.56;;;-145.06;60.50
6530;BME280;3298;42.688;23.366;2022-07-22T00:38:19;58793.78;;;-145.06;59.83
6530;BME280;3298;42.688;23.366;2022-07-22T00:40:46;58691.22;;;-145.06;60.34
6530;BME280;3298;42.688;23.366;2022-07-22T00:43:14;58797.88;;;-145.06;60.72
6530;BME280;3298;42.688;23.366;2022-07-22T00:45:41;58773.25;;;-145.06;60.49
6530;BME280;3298;42.688;23.366;2022-07-22T00:48:08;58767.13;;;-145.06;61.08
6530;BME280;3298;42.688;23.366;2022-07-22T00:50:34;58668.66;;;-145.06;61.52
6530;BME280;3298;42.688;23.366;2022-07-22T00:53:01;58724.03;;;-145.06;61.59
6530;BME280;3298;42.688;23.366;2022-07-22T00:55:28;58719.94;;;-145.06;61.60
6530;BME280;3298;42.688;23.366;2022-07-22T00:57:55;58715.84;;;-145.06;60.49
6530;BME280;3298;42.688;23.366;2022-07-22T01:00:23;58734.28;;;-145.06;60.75
6530;BME280;3298;42.688;23.366;2022-07-22T01:02:50;58724.03;;;-145.06;61.42
6530;BME280;3298;42.688;23.366;2022-07-22T01:05:17;58697.38;;;-145.06;62.00
6530;BME280;3298;42.688;23.366;2022-07-22T01:07:44;58670.72;;;-145.06;62.62
6530;BME280;3298;42.688;23.366;2022-07-22T01:10:12;58674.81;;;-145.06;63.32
6530;BME280;3298;42.688;23.366;2022-07-22T01:12:39;58664.56;;;-145.06;63.83
6530;BME280;3298;42.688;23.366;2022-07-22T01:15:07;58703.53;;;-145.06;64.00
6530;BME280;3298;42.688;23.366;2022-07-22T01:17:36;58693.28;;;-145.06;63.99
6530;BME280;3298;42.688;23.366;2022-07-22T01:20:05;58693.28;;;-145.06;63.67
6530;BME280;3298;42.688;23.366;2022-07-22T01:22:32;58683.03;;;-145.06;63.61
6530;BME280;3298;42.688;23.366;2022-07-22T01:24:59;58601.00;;;-145.06;62.89
6530;BME280;3298;42.688;23.366;2022-07-22T01:27:25;61149.13;;;-145.06;62.40
6530;BME280;3298;42.688;23.366;2022-07-22T01:29:53;58722.00;;;-145.06;62.47
6530;BME280;3298;42.688;23.366;2022-07-22T01:32:20;58724.03;;;-145.06;62.33
6530;BME280;3298;42.688;23.366;2022-07-22T01:34:47;58715.84;;;-145.06;62.51
6530;BME280;3298;42.688;23.366;2022-07-22T01:37:15;58744.56;;;-145.06;63.27
6530;BME280;3298;42.688;23.366;2022-07-22T01:39:41;58584.59;;;-145.06;63.38
6530;BME280;3298;42.688;23.366;2022-07-22T01:42:08;58680.97;;;-145.06;62.80
6530;BME280;3298;42.688;23.366;2022-07-22T01:44:35;58699.44;;;-145.06;63.17
6530;BME280;3298;42.688;23.366;2022-07-22T01:47:02;58740.44;;;-145.06;62.98
6530;BME280;3298;42.688;23.366;2022-07-22T01:49:29;58683.03;;;-145.06;63.58
6530;BME280;3298;42.688;23.366;2022-07-22T01:51:56;58724.03;;;-145.06;63.67
6530;BME280;3298;42.688;23.366;2022-07-22T01:54:24;58613.28;;;-145.06;64.79
6530;BME280;3298;42.688;23.366;2022-07-22T01:56:51;58644.06;;;-145.06;64.54
6530;BME280;3298;42.688;23.366;2022-07-22T01:59:18;58639.94;;;-145.06;65.05
6530;BME280;3298;42.688;23.366;2022-07-22T02:01:44;58289.28;;;-145.06;65.49
6530;BME280;3298;42.688;23.366;2022-07-22T02:04:11;58527.16;;;-145.06;65.09
6530;BME280;3298;42.688;23.366;2022-07-22T02:06:38;58621.50;;;-145.06;64.63
6530;BME280;3298;42.688;23.366;2022-07-22T02:09:06;58576.38;;;-145.06;64.77
6530;BME280;3298;42.688;23.366;2022-07-22T02:11:34;58629.69;;;-145.06;64.21
6530;BME280;3298;42.688;23.366;2022-07-22T02:14:01;58621.50;;;-145.06;64.16
6530;BME280;3298;42.688;23.366;2022-07-22T02:16:28;58596.88;;;-145.06;64.50
6530;BME280;3298;42.688;23.366;2022-07-22T02:18:55;58529.22;;;-145.06;64.96
6530;BME280;3298;42.688;23.366;2022-07-22T02:21:22;58615.34;;;-145.06;65.35
6530;BME280;3298;42.688;23.366;2022-07-22T02:23:49;58609.19;;;-145.06;65.15
6530;BME280;3298;42.688;23.366;2022-07-22T02:26:16;58510.75;;;-145.06;65.98
6530;BME280;3298;42.688;23.366;2022-07-22T02:28:44;58547.66;;;-145.06;66.61
6530;BME280;3298;42.688;23.366;2022-07-22T02:31:11;58455.38;;;-145.06;68.32
6530;BME280;3298;42.688;23.366;2022-07-22T02:33:38;58465.63;;;-145.06;68.94
6530;BME280;3298;42.688;23.366;2022-07-22T02:36:05;58449.22;;;-145.06;70.18
6530;BME280;3298;42.688;23.366;2022-07-22T02:38:32;58420.50;;;-145.06;70.19
6530;BME280;3298;42.688;23.366;2022-07-22T02:40:59;58338.50;;;-145.06;70.78
6530;BME280;3298;42.688;23.366;2022-07-22T02:43:26;58461.53;;;-145.06;70.59
6530;BME280;3298;42.688;23.366;2022-07-22T02:45:54;58475.88;;;-145.06;70.53
6530;BME280;3298;42.688;23.366;2022-07-22T02:48:21;58477.94;;;-145.06;70.55
6530;BME280;3298;42.688;23.366;2022-07-22T02:50:48;58397.97;;;-145.06;70.49
6530;BME280;3298;42.688;23.366;2022-07-22T02:53:15;58420.50;;;-145.06;70.85
6530;BME280;3298;42.688;23.366;2022-07-22T02:55:42;58428.72;;;-145.06;71.20
6530;BME280;3298;42.688;23.366;2022-07-22T02:58:09;58338.50;;;-145.06;71.16
6530;BME280;3298;42.688;23.366;2022-07-22T03:00:36;58395.91;;;-145.06;71.11
6530;BME280;3298;42.688;23.366;2022-07-22T03:03:05;58391.81;;;-145.06;71.22
6530;BME280;3298;42.688;23.366;2022-07-22T03:05:32;58342.59;;;-145.06;71.02
6530;BME280;3298;42.688;23.366;2022-07-22T03:07:59;58287.22;;;-145.06;70.60
6530;BME280;3298;42.688;23.366;2022-07-22T03:10:26;58279.00;;;-145.06;69.83
6530;BME280;3298;42.688;23.366;2022-07-22T03:12:53;58233.91;;;-145.06;70.35
6530;BME280;3298;42.688;23.366;2022-07-22T03:15:20;58166.22;;;-145.06;70.04
6530;BME280;3298;42.688;23.366;2022-07-22T03:17:46;58141.63;;;-145.06;70.85
6530;BME280;3298;42.688;23.366;2022-07-22T03:20:14;58084.22;;;-145.06;71.78
6530;BME280;3298;42.688;23.366;2022-07-22T03:22:41;58026.78;;;-145.06;71.99
6530;BME280;3298;42.688;23.366;2022-07-22T03:25:08;58030.91;;;-145.06;72.23
6530;BME280;3298;42.688;23.366;2022-07-22T03:27:36;58018.59;;;-145.06;72.50
6530;BME280;3298;42.688;23.366;2022-07-22T03:30:04;58012.44;;;-145.06;72.54
6530;BME280;3298;42.688;23.366;2022-07-22T03:32:30;57981.69;;;-145.06;72.59
6530;BME280;3298;42.688;23.366;2022-07-22T03:34:57;58057.56;;;-145.06;72.24
6530;BME280;3298;42.688;23.366;2022-07-22T03:37:25;58043.19;;;-145.06;71.75
6530;BME280;3298;42.688;23.366;2022-07-22T03:39:52;58037.03;;;-145.06;70.88
6530;BME280;3298;42.688;23.366;2022-07-22T03:42:19;57969.38;;;-145.06;70.24
6530;BME280;3298;42.688;23.366;2022-07-22T03:44:46;57975.53;;;-145.06;70.43
6530;BME280;3298;42.688;23.366;2022-07-22T03:47:17;58022.69;;;-145.06;69.87
6530;BME280;3298;42.688;23.366;2022-07-22T03:49:44;58002.19;;;-145.06;69.82
6530;BME280;3298;42.688;23.366;2022-07-22T03:52:11;57989.88;;;-145.06;69.99
6530;BME280;3298;42.688;23.366;2022-07-22T03:54:39;57930.41;;;-145.06;70.39
6530;BME280;3298;42.688;23.366;2022-07-22T03:57:06;57977.59;;;-145.06;70.03
6530;BME280;3298;42.688;23.366;2022-07-22T03:59:33;58002.19;;;-145.06;69.49
6530;BME280;3298;42.688;23.366;2022-07-22T04:02:00;57961.19;;;-145.06;69.84
6530;BME280;3298;42.688;23.366;2022-07-22T04:04:26;57944.78;;;-145.06;69.59
6530;BME280;3298;42.688;23.366;2022-07-22T04:06:53;57940.69;;;-145.06;69.78
6530;BME280;3298;42.688;23.366;2022-07-22T04:09:20;57963.22;;;-145.06;69.83
6530;BME280;3298;42.688;23.366;2022-07-22T04:11:48;57930.41;;;-145.06;69.58
6530;BME280;3298;42.688;23.366;2022-07-22T04:14:16;57938.63;;;-145.06;69.38
6530;BME280;3298;42.688;23.366;2022-07-22T04:16:43;57938.63;;;-145.06;68.99
6530;BME280;3298;42.688;23.366;2022-07-22T04:19:10;57971.44;;;-145.06;69.48
6530;BME280;3298;42.688;23.366;2022-07-22T04:21:37;57957.06;;;-145.06;69.21
6530;BME280;3298;42.688;23.366;2022-07-22T04:24:04;57981.69;;;-145.06;68.81
6530;BME280;3298;42.688;23.366;2022-07-22T04:26:31;60465.72;;;-145.06;68.76
6530;BME280;3298;42.688;23.366;2022-07-22T04:28:59;57950.94;;;-145.06;67.70
6530;BME280;3298;42.688;23.366;2022-07-22T04:31:26;57928.38;;;-145.06;66.64
6530;BME280;3298;42.688;23.366;2022-07-22T04:33:53;57934.53;;;-145.06;66.52
6530;BME280;3298;42.688;23.366;2022-07-22T04:36:20;57934.53;;;-145.06;65.82
6530;BME280;3298;42.688;23.366;2022-07-22T04:38:46;57957.06;;;-145.06;66.51
6530;BME280;3298;42.688;23.366;2022-07-22T04:41:13;57969.38;;;-145.06;65.79
6530;BME280;3298;42.688;23.366;2022-07-22T04:43:40;57973.47;;;-145.06;65.83
6530;BME280;3298;42.688;23.366;2022-07-22T04:46:08;57985.78;;;-145.06;65.14
6530;BME280;3298;42.688;23.366;2022-07-22T04:48:35;57920.16;;;-145.06;64.50
6530;BME280;3298;42.688;23.366;2022-07-22T04:51:03;57786.91;;;-145.06;64.67
6530;BME280;3298;42.688;23.366;2022-07-22T04:53:29;57979.63;;;-145.06;63.52
6530;BME280;3298;42.688;23.366;2022-07-22T04:55:56;57973.47;;;-145.06;63.08
6530;BME280;3298;42.688;23.366;2022-07-22T04:58:23;57950.94;;;-145.06;63.90
6530;BME280;3298;42.688;23.366;2022-07-22T05:00:50;57928.38;;;-145.06;64.03
6530;BME280;3298;42.688;23.366;2022-07-22T05:03:18;57911.97;;;-145.06;63.62
6530;BME280;3298;42.688;23.366;2022-07-22T05:05:45;57774.59;;;-145.06;63.27
6530;BME280;3298;42.688;23.366;2022-07-22T05:08:12;57983.72;;;-145.06;59.01
6530;BME280;3298;42.688;23.366;2022-07-22T05:10:39;58340.53;;;-145.06;53.57
6530;BME280;3298;42.688;23.366;2022-07-22T05:13:05;58687.13;;;-145.06;47.70
6530;BME280;3298;42.688;23.366;2022-07-22T05:15:32;59105.53;;;-145.06;42.79
6530;BME280;3298;42.688;23.366;2022-07-22T05:17:59;60106.66;;;-145.06;41.04
6530;BME280;3298;42.688;23.366;2022-07-22T05:20:27;59345.53;;;-145.06;40.61
6530;BME280;3298;42.688;23.366;2022-07-22T05:22:54;59823.53;;;-145.06;38.72
6530;BME280;3298;42.688;23.366;2022-07-22T05:25:21;60207.19;;;-145.06;36.80
6530;BME280;3298;42.688;23.366;2022-07-22T05:27:51;60603.22;;;-145.06;35.33
6530;BME280;3298;42.688;23.366;2022-07-22T05:30:18;60461.63;;;-145.06;35.03
6530;BME280;3298;42.688;23.366;2022-07-22T05:32:45;60660.69;;;-145.06;34.58
6530;BME280;3298;42.688;23.366;2022-07-22T05:35:12;60402.13;;;-145.06;34.19
6530;BME280;3298;42.688;23.366;2022-07-22T05:37:40;60861.78;;;-145.06;32.90
6530;BME280;3298;42.688;23.366;2022-07-22T05:40:08;60525.25;;;-145.06;33.83
6530;BME280;3298;42.688;23.366;2022-07-22T05:42:35;60601.16;;;-145.06;33.48
6530;BME280;3298;42.688;23.366;2022-07-22T05:45:02;61545.25;;;-145.06;32.24
6530;BME280;3298;42.688;23.366;2022-07-22T05:47:29;60927.47;;;-145.06;32.40
6530;BME280;3298;42.688;23.366;2022-07-22T05:49:56;61253.78;;;-145.06;31.59
6530;BME280;3298;42.688;23.366;2022-07-22T05:52:23;61461.09;;;-145.06;30.93
6530;BME280;3298;42.688;23.366;2022-07-22T05:54:51;61953.75;;;-145.06;30.31
6530;BME280;3298;42.688;23.366;2022-07-22T05:57:18;61847.00;;;-145.06;30.49
6530;BME280;3298;42.688;23.366;2022-07-22T05:59:45;61229.16;;;-145.06;31.24
6530;BME280;3298;42.688;23.366;2022-07-22T06:02:12;60849.47;;;-145.06;32.33
6530;BME280;3298;42.688;23.366;2022-07-22T06:04:39;60742.75;;;-145.06;32.58
6530;BME280;3298;42.688;23.366;2022-07-22T06:07:05;60962.34;;;-145.06;32.20
6530;BME280;3298;42.688;23.366;2022-07-22T06:09:32;61264.03;;;-145.06;31.00
6530;BME280;3298;42.688;23.366;2022-07-22T06:12:02;60939.78;;;-145.06;31.72
6530;BME280;3298;42.688;23.366;2022-07-22T06:14:29;61481.63;;;-145.06;30.69
6530;BME280;3298;42.688;23.366;2022-07-22T06:16:56;61803.88;;;-145.06;29.98
6530;BME280;3298;42.688;23.366;2022-07-22T06:19:23;61495.97;;;-145.06;31.24
6530;BME280;3298;42.688;23.366;2022-07-22T06:21:50;60660.69;;;-145.06;33.54
6530;BME280;3298;42.688;23.366;2022-07-22T06:24:17;60127.16;;;-145.06;36.08
6530;BME280;3298;42.688;23.366;2022-07-22T06:26:44;59743.50;;;-145.06;38.97
6530;BME280;3298;42.688;23.366;2022-07-22T06:29:12;59558.88;;;-145.06;39.54
6530;BME280;3298;42.688;23.366;2022-07-22T06:31:38;59409.13;;;-145.06;40.60
6530;BME280;3298;42.688;23.366;2022-07-22T06:34:05;59216.31;;;-145.06;41.85
6530;BME280;3298;42.688;23.366;2022-07-22T06:36:32;59218.34;;;-145.06;43.33
6530;BME280;3298;42.688;23.366;2022-07-22T06:38:59;59191.69;;;-145.06;44.09
6530;BME280;3298;42.688;23.366;2022-07-22T06:41:26;59046.06;;;-145.06;44.33
6530;BME280;3298;42.688;23.366;2022-07-22T06:43:53;58994.78;;;-145.06;44.22
6530;BME280;3298;42.688;23.366;2022-07-22T06:46:21;59154.75;;;-145.06;44.81
6530;BME280;3298;42.688;23.366;2022-07-22T06:48:48;58904.53;;;-145.06;45.15
6530;BME280;3298;42.688;23.366;2022-07-22T06:51:15;58748.66;;;-145.06;45.24
6530;BME280;3298;42.688;23.366;2022-07-22T06:53:41;58875.81;;;-145.06;45.08
6530;BME280;3298;42.688;23.366;2022-07-22T06:56:08;58908.63;;;-145.06;45.62
6530;BME280;3298;42.688;23.366;2022-07-22T06:58:35;58970.16;;;-145.06;46.62
6530;BME280;3298;42.688;23.366;2022-07-22T07:01:02;59400.91;;;-145.06;46.08
6530;BME280;3298;42.688;23.366;2022-07-22T07:03:30;59072.72;;;-145.06;44.86
6530;BME280;3298;42.688;23.366;2022-07-22T07:05:57;59134.25;;;-145.06;45.87
6530;BME280;3298;42.688;23.366;2022-07-22T07:08:24;59124.00;;;-145.06;45.18
6530;BME280;3298;42.688;23.366;2022-07-22T07:10:50;59072.72;;;-145.06;43.13
6530;BME280;3298;42.688;23.366;2022-07-22T07:13:17;59058.34;;;-145.06;42.86
6530;BME280;3298;42.688;23.366;2022-07-22T07:15:44;59099.38;;;-145.06;43.07
6530;BME280;3298;42.688;23.366;2022-07-22T07:18:11;59144.50;;;-145.06;42.31
6530;BME280;3298;42.688;23.366;2022-07-22T07:20:39;59175.28;;;-145.06;42.01
6530;BME280;3298;42.688;23.366;2022-07-22T07:23:06;59177.31;;;-145.06;41.48
6530;BME280;3298;42.688;23.366;2022-07-22T07:25:33;59220.41;;;-145.06;41.96
6530;BME280;3298;42.688;23.366;2022-07-22T07:28:00;59249.13;;;-145.06;41.30
6530;BME280;3298;42.688;23.366;2022-07-22T07:30:27;59314.75;;;-145.06;41.14
6530;BME280;3298;42.688;23.366;2022-07-22T07:32:54;59277.84;;;-145.06;41.28
6530;BME280;3298;42.688;23.366;2022-07-22T07:35:20;59314.75;;;-145.06;41.40
6530;BME280;3298;42.688;23.366;2022-07-22T07:37:49;59417.31;;;-145.06;40.67
6530;BME280;3298;42.688;23.366;2022-07-22T07:40:15;59409.13;;;-145.06;40.77
6530;BME280;3298;42.688;23.366;2022-07-22T07:42:42;59441.94;;;-145.06;40.46
6530;BME280;3298;42.688;23.366;2022-07-22T07:45:09;59513.75;;;-145.06;40.33
6530;BME280;3298;42.688;23.366;2022-07-22T07:47:36;59431.69;;;-145.06;39.73
6530;BME280;3298;42.688;23.366;2022-07-22T07:50:04;59501.44;;;-145.06;39.67
6530;BME280;3298;42.688;23.366;2022-07-22T07:52:36;59458.34;;;-145.06;38.81
6530;BME280;3298;42.688;23.366;2022-07-22T07:55:06;59565.03;;;-145.06;39.00
6530;BME280;3298;42.688;23.366;2022-07-22T07:57:33;59589.66;;;-145.06;38.71
6530;BME280;3298;42.688;23.366;2022-07-22T08:00:00;59636.81;;;-145.06;38.37
6530;BME280;3298;42.688;23.366;2022-07-22T08:02:26;59710.69;;;-145.06;38.32
6530;BME280;3298;42.688;23.366;2022-07-22T08:04:53;59716.84;;;-145.06;38.03
6530;BME280;3298;42.688;23.366;2022-07-22T08:07:20;59733.25;;;-145.06;38.16
6530;BME280;3298;42.688;23.366;2022-07-22T08:09:47;59825.56;;;-145.06;38.83
6530;BME280;3298;42.688;23.366;2022-07-22T08:12:15;59913.78;;;-145.06;38.74
6530;BME280;3298;42.688;23.366;2022-07-22T08:14:42;59860.44;;;-145.06;37.81
6530;BME280;3298;42.688;23.366;2022-07-22T08:17:08;59901.47;;;-145.06;37.49
6530;BME280;3298;42.688;23.366;2022-07-22T08:19:35;59901.47;;;-145.06;36.59
6530;BME280;3298;42.688;23.366;2022-07-22T08:22:02;59934.31;;;-145.06;35.99
6530;BME280;3298;42.688;23.366;2022-07-22T08:24:29;59913.78;;;-145.06;34.81
6530;BME280;3298;42.688;23.366;2022-07-22T08:26:56;59946.63;;;-145.06;35.39
6530;BME280;3298;42.688;23.366;2022-07-22T08:29:24;59977.41;;;-145.06;35.27
6530;BME280;3298;42.688;23.366;2022-07-22T08:31:51;60061.50;;;-145.06;35.60
6530;BME280;3298;42.688;23.366;2022-07-22T08:34:18;60053.31;;;-145.06;34.40
6530;BME280;3298;42.688;23.366;2022-07-22T08:36:45;59917.91;;;-145.06;34.15
6530;BME280;3298;42.688;23.366;2022-07-22T08:39:11;60102.53;;;-145.06;33.93
6530;BME280;3298;42.688;23.366;2022-07-22T08:41:38;60030.75;;;-145.06;33.54
6530;BME280;3298;42.688;23.366;2022-07-22T08:44:07;60102.53;;;-145.06;34.02
6530;BME280;3298;42.688;23.366;2022-07-22T08:46:36;60182.56;;;-145.06;33.37
6530;BME280;3298;42.688;23.366;2022-07-22T08:49:03;60192.81;;;-145.06;33.51
6530;BME280;3298;42.688;23.366;2022-07-22T08:51:31;60203.09;;;-145.06;32.37
6530;BME280;3298;42.688;23.366;2022-07-22T08:53:58;60350.81;;;-145.06;32.96
6530;BME280;3298;42.688;23.366;2022-07-22T08:56:25;60348.78;;;-145.06;32.91
6530;BME280;3298;42.688;23.366;2022-07-22T08:58:52;60455.47;;;-145.06;32.59
6530;BME280;3298;42.688;23.366;2022-07-22T09:01:19;60422.63;;;-145.06;32.28
6530;BME280;3298;42.688;23.366;2022-07-22T09:03:48;60471.88;;;-145.06;31.87
6530;BME280;3298;42.688;23.366;2022-07-22T09:06:16;60455.47;;;-145.06;31.26
6530;BME280;3298;42.688;23.366;2022-07-22T09:08:53;60582.69;;;-145.06;31.83
6530;BME280;3298;42.688;23.366;2022-07-22T09:11:22;60556.03;;;-145.06;31.71
6530;BME280;3298;42.688;23.366;2022-07-22T09:13:51;60642.22;;;-145.06;30.94
6530;BME280;3298;42.688;23.366;2022-07-22T09:16:40;60785.84;;;-145.06;30.24
6530;BME280;3298;42.688;23.366;2022-07-22T09:19:09;60984.94;;;-145.06;29.93
6530;BME280;3298;42.688;23.366;2022-07-22T09:21:38;61251.72;;;-145.06;29.98
6530;BME280;3298;42.688;23.366;2022-07-22T09:24:06;61420.03;;;-145.06;29.32
6530;BME280;3298;42.688;23.366;2022-07-22T09:26:34;61506.25;;;-145.06;29.06
6530;BME280;3298;42.688;23.366;2022-07-22T09:29:03;61565.78;;;-145.06;29.38
6530;BME280;3298;42.688;23.366;2022-07-22T09:31:31;61444.66;;;-145.06;29.28
6530;BME280;3298;42.688;23.366;2022-07-22T09:33:59;61436.47;;;-145.06;29.72
6530;BME280;3298;42.688;23.366;2022-07-22T09:36:27;61477.50;;;-145.06;29.21
6530;BME280;3298;42.688;23.366;2022-07-22T09:38:54;61325.63;;;-145.06;28.95
6530;BME280;3298;42.688;23.366;2022-07-22T09:41:21;61493.94;;;-145.06;29.64
6530;BME280;3298;42.688;23.366;2022-07-22T09:43:48;61576.03;;;-145.06;29.13
6530;BME280;3298;42.688;23.366;2022-07-22T09:46:16;61844.94;;;-145.06;28.54
6530;BME280;3298;42.688;23.366;2022-07-22T09:48:43;61539.09;;;-145.06;28.47
6530;BME280;3298;42.688;23.366;2022-07-22T09:51:10;61769.00;;;-145.06;28.32
6530;BME280;3298;42.688;23.366;2022-07-22T09:53:38;61931.16;;;-145.06;28.48
6530;BME280;3298;42.688;23.366;2022-07-22T09:56:06;61666.34;;;-145.06;28.63
6530;BME280;3298;42.688;23.366;2022-07-22T09:58:33;61785.41;;;-145.06;28.55
6530;BME280;3298;42.688;23.366;2022-07-22T10:01:04;61976.31;;;-145.06;28.33
6530;BME280;3298;42.688;23.366;2022-07-22T10:03:33;62247.31;;;-145.06;27.68
6530;BME280;3298;42.688;23.366;2022-07-22T10:06:03;62637.44;;;-145.06;27.42
6530;BME280;3298;42.688;23.366;2022-07-22T10:08:31;62793.47;;;-145.06;27.10
6530;BME280;3298;42.688;23.366;2022-07-22T10:11:02;63085.06;;;-145.06;26.86
6530;BME280;3298;42.688;23.366;2022-07-22T10:13:29;62924.91;;;-145.06;26.80
6530;BME280;3298;42.688;23.366;2022-07-22T10:15:57;63021.41;;;-145.06;26.85
6530;BME280;3298;42.688;23.366;2022-07-22T10:18:26;63052.22;;;-145.06;27.14
6530;BME280;3298;42.688;23.366;2022-07-22T10:21:02;63413.66;;;-145.06;26.24
6530;BME280;3298;42.688;23.366;2022-07-22T10:23:29;63239.09;;;-145.06;26.46
6530;BME280;3298;42.688;23.366;2022-07-22T10:25:57;63148.72;;;-145.06;26.58
6530;BME280;3298;42.688;23.366;2022-07-22T10:28:27;63232.94;;;-145.06;26.80
6530;BME280;3298;42.688;23.366;2022-07-22T10:31:16;64750.91;;;-145.06;26.22
6530;BME280;3298;42.688;23.366;2022-07-22T10:33:43;63421.88;;;-145.06;25.86
6530;BME280;3298;42.688;23.366;2022-07-22T10:36:11;63329.47;;;-145.06;26.00
6530;BME280;3298;42.688;23.366;2022-07-22T10:39:01;63727.91;;;-145.06;25.80
6530;BME280;3298;42.688;23.366;2022-07-22T10:41:33;64060.66;;;-145.06;25.14
6530;BME280;3298;42.688;23.366;2022-07-22T10:44:02;63754.59;;;-145.06;25.47
6530;BME280;3298;42.688;23.366;2022-07-22T10:46:47;63407.50;;;-145.06;26.25
6530;BME280;3298;42.688;23.366;2022-07-22T10:49:15;66123.66;;;-145.06;26.10
6530;BME280;3298;42.688;23.366;2022-07-22T10:52:08;62912.56;;;-145.06;25.96
6530;BME280;3298;42.688;23.366;2022-07-22T10:57:35;62984.44;;;-145.06;25.93
6530;BME280;3298;42.688;23.366;2022-07-22T11:00:05;63308.91;;;-145.06;25.85
6530;BME280;3298;42.688;23.366;2022-07-22T11:02:33;63582.06;;;-145.06;25.85
6530;BME280;3298;42.688;23.366;2022-07-22T11:05:00;63374.63;;;-145.06;26.17
6530;BME280;3298;42.688;23.366;2022-07-22T11:07:27;63423.94;;;-145.06;25.83
6530;BME280;3298;42.688;23.366;2022-07-22T11:10:08;63538.94;;;-145.06;25.63
6530;BME280;3298;42.688;23.366;2022-07-22T11:12:35;63530.72;;;-145.06;25.49
6530;BME280;3298;42.688;23.366;2022-07-22T11:15:04;63491.69;;;-145.06;25.50
6530;BME280;3298;42.688;23.366;2022-07-22T11:17:31;63489.66;;;-145.06;26.02
6530;BME280;3298;42.688;23.366;2022-07-22T11:20:00;63929.19;;;-145.06;25.53
6530;BME280;3298;42.688;23.366;2022-07-22T11:22:27;63789.53;;;-145.06;25.36
6530;BME280;3298;42.688;23.366;2022-07-22T11:24:54;63534.84;;;-145.06;25.50
6530;BME280;3298;42.688;23.366;2022-07-22T11:27:20;63863.47;;;-145.06;25.43
6530;BME280;3298;42.688;23.366;2022-07-22T11:29:49;63999.03;;;-145.06;25.12
6530;BME280;3298;42.688;23.366;2022-07-22T11:32:19;64496.16;;;-145.06;24.88
6530;BME280;3298;42.688;23.366;2022-07-22T11:34:46;63577.97;;;-145.06;25.48
6530;BME280;3298;42.688;23.366;2022-07-22T11:37:13;63662.16;;;-145.06;25.50
6530;BME280;3298;42.688;23.366;2022-07-22T11:39:41;63549.22;;;-145.06;25.21
6530;BME280;3298;42.688;23.366;2022-07-22T11:42:08;63840.88;;;-145.06;24.93
6530;BME280;3298;42.688;23.366;2022-07-22T11:44:38;63777.19;;;-145.06;25.76
6530;BME280;3298;42.688;23.366;2022-07-22T11:47:06;63653.97;;;-145.06;25.65
6530;BME280;3298;42.688;23.366;2022-07-22T11:49:37;64001.09;;;-145.06;25.57
6530;BME280;3298;42.688;23.366;2022-07-22T11:52:06;63957.94;;;-145.06;25.19
6530;BME280;3298;42.688;23.366;2022-07-22T11:54:37;63460.91;;;-145.06;25.19
6530;BME280;3298;42.688;23.366;2022-07-22T11:57:06;63590.28;;;-145.06;25.17
6530;BME280;3298;42.688;23.366;2022-07-22T11:59:33;63686.81;;;-145.06;25.15
6530;BME280;3298;42.688;23.366;2022-07-22T12:02:01;63551.25;;;-145.06;25.45
6530;BME280;3298;42.688;23.366;2022-07-22T12:04:30;63571.81;;;-145.06;26.01
6530;BME280;3298;42.688;23.366;2022-07-22T12:07:00;63245.25;;;-145.06;25.76
6530;BME280;3298;42.688;23.366;2022-07-22T12:09:30;63341.78;;;-145.06;25.70
6530;BME280;3298;42.688;23.366;2022-07-22T12:11:58;63214.44;;;-145.06;25.49
6530;BME280;3298;42.688;23.366;2022-07-22T12:14:26;63448.56;;;-145.06;25.12
6530;BME280;3298;42.688;23.366;2022-07-22T12:16:55;63405.44;;;-145.06;25.78
6530;BME280;3298;42.688;23.366;2022-07-22T12:19:23;63651.91;;;-145.06;25.70
6530;BME280;3298;42.688;23.366;2022-07-22T12:21:51;63280.16;;;-145.06;25.75
6530;BME280;3298;42.688;23.366;2022-07-22T12:24:27;63220.59;;;-145.06;25.91
6530;BME280;3298;42.688;23.366;2022-07-22T12:26:56;63004.97;;;-145.06;26.09
6530;BME280;3298;42.688;23.366;2022-07-22T12:29:25;63066.59;;;-145.06;26.01
6530;BME280;3298;42.688;23.366;2022-07-22T12:31:55;62902.31;;;-145.06;25.89
6530;BME280;3298;42.688;23.366;2022-07-22T12:34:36;63226.78;;;-145.06;25.33
6530;BME280;3298;42.688;23.366;2022-07-22T12:37:15;63241.16;;;-145.06;25.78
6530;BME280;3298;42.688;23.366;2022-07-22T12:39:58;63506.06;;;-145.06;25.53
6530;BME280;3298;42.688;23.366;2022-07-22T12:42:26;63132.31;;;-145.06;25.56
6530;BME280;3298;42.688;23.366;2022-07-22T12:44:59;62939.28;;;-145.06;25.96
6530;BME280;3298;42.688;23.366;2022-07-22T12:47:47;62253.47;;;-145.06;26.52
6530;BME280;3298;42.688;23.366;2022-07-22T12:50:26;62339.72;;;-145.06;26.12
6530;BME280;3298;42.688;23.366;2022-07-22T12:52:56;62356.13;;;-145.06;26.27
6530;BME280;3298;42.688;23.366;2022-07-22T12:55:26;62454.69;;;-145.06;26.19
6530;BME280;3298;42.688;23.366;2022-07-22T12:57:53;62701.06;;;-145.06;25.80